sensor_id;sensor_type;location;lat;lon;timestamp;P1;durP1;ratioP1;P2;durP2;ratioP2
21270;SDS011;10795;50.796;3.860;2023-06-10T00:02:15;11.02;;;6.45;;
21270;SDS011;10795;50.796;3.860;2023-06-10T00:04:42;6.03;;;5.40;;
21270;SDS011;10795;50.796;3.860;2023-06-10T00:07:08;7.80;;;6.35;;
21270;SDS011;10795;50.796;3.860;2023-06-10T00:09:34;7.18;;;5.68;;
21270;SDS011;10795;50.796;3.860;2023-06-10T00:12:03;6.07;;;5.47;;
21270;SDS011;10795;50.796;3.860;2023-06-10T00:14:36;6.32;;;5.63;;
21270;SDS011;10795;50.796;3.860;2023-06-10T00:17:03;9.38;;;6.97;;
21270;SDS011;10795;50.796;3.860;2023-06-10T00:19:29;5.57;;;4.95;;
21270;SDS011;10795;50.796;3.860;2023-06-10T00:21:56;7.05;;;6.35;;
21270;SDS011;10795;50.796;3.860;2023-06-10T00:24:22;5.95;;;5.43;;
21270;SDS011;10795;50.796;3.860;2023-06-10T00:26:48;6.70;;;6.10;;
21270;SDS011;10795;50.796;3.860;2023-06-10T00:29:13;5.93;;;5.40;;
21270;SDS011;10795;50.796;3.860;2023-06-10T00:31:40;5.40;;;4.90;;
21270;SDS011;10795;50.796;3.860;2023-06-10T00:34:06;6.20;;;5.60;;
21270;SDS011;10795;50.796;3.860;2023-06-10T00:36:32;6.15;;;5.53;;
21270;SDS011;10795;50.796;3.860;2023-06-10T00:38:58;8.13;;;7.32;;
21270;SDS011;10795;50.796;3.860;2023-06-10T00:41:24;8.68;;;6.82;;
21270;SDS011;10795;50.796;3.860;2023-06-10T00:43:53;6.97;;;5.65;;
21270;SDS011;10795;50.796;3.860;2023-06-10T00:46:20;8.70;;;7.40;;
21270;SDS011;10795;50.796;3.860;2023-06-10T00:48:46;7.82;;;6.22;;
21270;SDS011;10795;50.796;3.860;2023-06-10T00:51:12;6.00;;;5.35;;
21270;SDS011;10795;50.796;3.860;2023-06-10T00:53:39;7.95;;;6.00;;
21270;SDS011;10795;50.796;3.860;2023-06-10T00:56:06;6.28;;;5.60;;
21270;SDS011;10795;50.796;3.860;2023-06-10T00:58:34;6.53;;;5.70;;
21270;SDS011;10795;50.796;3.860;2023-06-10T01:01:01;9.20;;;6.47;;
21270;SDS011;10795;50.796;3.860;2023-06-10T01:03:27;7.20;;;6.07;;
21270;SDS011;10795;50.796;3.860;2023-06-10T01:06:00;7.50;;;6.00;;
21270;SDS011;10795;50.796;3.860;2023-06-10T01:08:46;8.73;;;7.70;;
21270;SDS011;10795;50.796;3.860;2023-06-10T01:11:28;8.88;;;6.75;;
21270;SDS011;10795;50.796;3.860;2023-06-10T01:13:59;6.72;;;5.80;;
21270;SDS011;10795;50.796;3.860;2023-06-10T01:16:26;9.32;;;6.05;;
21270;SDS011;10795;50.796;3.860;2023-06-10T01:18:53;6.95;;;6.25;;
21270;SDS011;10795;50.796;3.860;2023-06-10T01:21:20;8.63;;;6.93;;
21270;SDS011;10795;50.796;3.860;2023-06-10T01:23:49;8.20;;;7.43;;
21270;SDS011;10795;50.796;3.860;2023-06-10T01:26:16;7.03;;;6.32;;
21270;SDS011;10795;50.796;3.860;2023-06-10T01:28:47;8.60;;;7.80;;
21270;SDS011;10795;50.796;3.860;2023-06-10T01:31:41;7.72;;;7.03;;
21270;SDS011;10795;50.796;3.860;2023-06-10T01:34:14;7.75;;;6.70;;
21270;SDS011;10795;50.796;3.860;2023-06-10T01:36:43;8.13;;;6.80;;
21270;SDS011;10795;50.796;3.860;2023-06-10T01:39:12;9.07;;;8.18;;
21270;SDS011;10795;50.796;3.860;2023-06-10T01:41:41;9.63;;;7.40;;
21270;SDS011;10795;50.796;3.860;2023-06-10T01:44:07;7.57;;;6.78;;
21270;SDS011;10795;50.796;3.860;2023-06-10T01:46:33;8.32;;;6.90;;
21270;SDS011;10795;50.796;3.860;2023-06-10T01:48:59;9.13;;;8.23;;
21270;SDS011;10795;50.796;3.860;2023-06-10T01:51:25;8.02;;;7.22;;
21270;SDS011;10795;50.796;3.860;2023-06-10T01:53:51;9.10;;;7.05;;
21270;SDS011;10795;50.796;3.860;2023-06-10T01:56:17;8.32;;;6.72;;
21270;SDS011;10795;50.796;3.860;2023-06-10T01:58:43;9.48;;;6.82;;
21270;SDS011;10795;50.796;3.860;2023-06-10T02:01:09;10.65;;;9.00;;
21270;SDS011;10795;50.796;3.860;2023-06-10T02:03:36;9.98;;;8.98;;
21270;SDS011;10795;50.796;3.860;2023-06-10T02:06:02;10.75;;;9.00;;
21270;SDS011;10795;50.796;3.860;2023-06-10T02:08:28;8.70;;;7.85;;
21270;SDS011;10795;50.796;3.860;2023-06-10T02:10:54;11.93;;;8.57;;
21270;SDS011;10795;50.796;3.860;2023-06-10T02:13:20;9.68;;;8.70;;
21270;SDS011;10795;50.796;3.860;2023-06-10T02:15:50;9.85;;;8.50;;
21270;SDS011;10795;50.796;3.860;2023-06-10T02:18:19;10.63;;;8.60;;
21270;SDS011;10795;50.796;3.860;2023-06-10T02:20:45;10.00;;;8.55;;
21270;SDS011;10795;50.796;3.860;2023-06-10T02:23:11;9.95;;;8.98;;
21270;SDS011;10795;50.796;3.860;2023-06-10T02:25:37;12.50;;;9.10;;
21270;SDS011;10795;50.796;3.860;2023-06-10T02:28:03;9.70;;;8.48;;
21270;SDS011;10795;50.796;3.860;2023-06-10T02:30:29;10.85;;;9.00;;
21270;SDS011;10795;50.796;3.860;2023-06-10T02:32:55;11.52;;;9.07;;
21270;SDS011;10795;50.796;3.860;2023-06-10T02:35:22;10.23;;;8.13;;
21270;SDS011;10795;50.796;3.860;2023-06-10T02:37:49;8.05;;;7.28;;
21270;SDS011;10795;50.796;3.860;2023-06-10T02:40:18;8.75;;;7.88;;
21270;SDS011;10795;50.796;3.860;2023-06-10T02:42:43;10.73;;;9.02;;
21270;SDS011;10795;50.796;3.860;2023-06-10T02:45:10;11.65;;;8.90;;
21270;SDS011;10795;50.796;3.860;2023-06-10T02:47:41;9.95;;;8.80;;
21270;SDS011;10795;50.796;3.860;2023-06-10T02:50:08;12.38;;;8.77;;
21270;SDS011;10795;50.796;3.860;2023-06-10T02:52:43;10.32;;;8.52;;
21270;SDS011;10795;50.796;3.860;2023-06-10T02:55:09;10.60;;;9.27;;
21270;SDS011;10795;50.796;3.860;2023-06-10T02:57:37;9.68;;;8.57;;
21270;SDS011;10795;50.796;3.860;2023-06-10T03:00:04;11.10;;;9.98;;
21270;SDS011;10795;50.796;3.860;2023-06-10T03:02:34;10.02;;;8.98;;
21270;SDS011;10795;50.796;3.860;2023-06-10T03:05:03;10.63;;;9.65;;
21270;SDS011;10795;50.796;3.860;2023-06-10T03:07:29;13.63;;;10.35;;
21270;SDS011;10795;50.796;3.860;2023-06-10T03:09:58;9.18;;;8.27;;
21270;SDS011;10795;50.796;3.860;2023-06-10T03:12:24;10.80;;;8.93;;
21270;SDS011;10795;50.796;3.860;2023-06-10T03:14:50;10.57;;;9.50;;
21270;SDS011;10795;50.796;3.860;2023-06-10T03:17:16;11.52;;;9.57;;
21270;SDS011;10795;50.796;3.860;2023-06-10T03:19:44;10.43;;;9.32;;
21270;SDS011;10795;50.796;3.860;2023-06-10T03:22:10;9.55;;;8.65;;
21270;SDS011;10795;50.796;3.860;2023-06-10T03:24:42;12.18;;;9.10;;
21270;SDS011;10795;50.796;3.860;2023-06-10T03:27:10;10.13;;;9.13;;
21270;SDS011;10795;50.796;3.860;2023-06-10T03:29:42;12.07;;;10.27;;
21270;SDS011;10795;50.796;3.860;2023-06-10T03:32:09;10.95;;;9.85;;
21270;SDS011;10795;50.796;3.860;2023-06-10T03:34:37;11.00;;;9.77;;
21270;SDS011;10795;50.796;3.860;2023-06-10T03:37:04;11.65;;;9.55;;
21270;SDS011;10795;50.796;3.860;2023-06-10T03:39:31;11.40;;;9.18;;
21270;SDS011;10795;50.796;3.860;2023-06-10T03:41:58;10.23;;;8.85;;
21270;SDS011;10795;50.796;3.860;2023-06-10T03:44:25;12.23;;;9.15;;
21270;SDS011;10795;50.796;3.860;2023-06-10T03:46:51;11.98;;;9.73;;
21270;SDS011;10795;50.796;3.860;2023-06-10T03:49:17;10.57;;;9.48;;
21270;SDS011;10795;50.796;3.860;2023-06-10T03:51:43;10.23;;;9.27;;
21270;SDS011;10795;50.796;3.860;2023-06-10T03:54:09;11.13;;;10.07;;
21270;SDS011;10795;50.796;3.860;2023-06-10T03:56:35;10.80;;;9.43;;
21270;SDS011;10795;50.796;3.860;2023-06-10T03:59:01;8.80;;;6.93;;
21270;SDS011;10795;50.796;3.860;2023-06-10T04:01:27;7.43;;;6.63;;
21270;SDS011;10795;50.796;3.860;2023-06-10T04:03:54;7.55;;;6.85;;
21270;SDS011;10795;50.796;3.860;2023-06-10T04:06:20;9.27;;;8.30;;
21270;SDS011;10795;50.796;3.860;2023-06-10T04:08:47;11.55;;;9.30;;
21270;SDS011;10795;50.796;3.860;2023-06-10T04:11:13;11.02;;;9.68;;
21270;SDS011;10795;50.796;3.860;2023-06-10T04:13:39;13.10;;;9.70;;
21270;SDS011;10795;50.796;3.860;2023-06-10T04:16:05;10.20;;;9.23;;
21270;SDS011;10795;50.796;3.860;2023-06-10T04:18:31;11.75;;;9.50;;
21270;SDS011;10795;50.796;3.860;2023-06-10T04:21:02;11.40;;;10.15;;
21270;SDS011;10795;50.796;3.860;2023-06-10T04:23:29;10.40;;;9.40;;
21270;SDS011;10795;50.796;3.860;2023-06-10T04:25:55;13.68;;;10.05;;
21270;SDS011;10795;50.796;3.860;2023-06-10T04:28:23;9.82;;;8.85;;
21270;SDS011;10795;50.796;3.860;2023-06-10T04:30:48;10.75;;;9.75;;
21270;SDS011;10795;50.796;3.860;2023-06-10T04:33:15;10.07;;;8.95;;
21270;SDS011;10795;50.796;3.860;2023-06-10T04:35:42;11.23;;;9.45;;
21270;SDS011;10795;50.796;3.860;2023-06-10T04:38:11;12.25;;;10.73;;
21270;SDS011;10795;50.796;3.860;2023-06-10T04:40:38;11.57;;;9.60;;
21270;SDS011;10795;50.796;3.860;2023-06-10T04:43:04;12.52;;;10.43;;
21270;SDS011;10795;50.796;3.860;2023-06-10T04:45:31;12.25;;;9.73;;
21270;SDS011;10795;50.796;3.860;2023-06-10T04:47:57;9.85;;;7.53;;
21270;SDS011;10795;50.796;3.860;2023-06-10T04:50:25;8.88;;;8.07;;
21270;SDS011;10795;50.796;3.860;2023-06-10T04:52:52;10.43;;;9.32;;
21270;SDS011;10795;50.796;3.860;2023-06-10T04:55:17;10.35;;;9.35;;
21270;SDS011;10795;50.796;3.860;2023-06-10T04:57:43;9.73;;;8.73;;
21270;SDS011;10795;50.796;3.860;2023-06-10T05:00:09;7.13;;;6.40;;
21270;SDS011;10795;50.796;3.860;2023-06-10T05:02:35;9.35;;;7.35;;
21270;SDS011;10795;50.796;3.860;2023-06-10T05:05:01;10.07;;;8.05;;
21270;SDS011;10795;50.796;3.860;2023-06-10T05:07:27;7.40;;;6.70;;
21270;SDS011;10795;50.796;3.860;2023-06-10T05:09:53;8.38;;;7.53;;
21270;SDS011;10795;50.796;3.860;2023-06-10T05:12:18;7.07;;;6.43;;
21270;SDS011;10795;50.796;3.860;2023-06-10T05:14:44;8.52;;;7.70;;
21270;SDS011;10795;50.796;3.860;2023-06-10T05:17:10;7.25;;;6.55;;
21270;SDS011;10795;50.796;3.860;2023-06-10T05:19:38;7.10;;;6.35;;
21270;SDS011;10795;50.796;3.860;2023-06-10T05:22:03;11.23;;;9.68;;
21270;SDS011;10795;50.796;3.860;2023-06-10T05:24:29;12.23;;;9.75;;
21270;SDS011;10795;50.796;3.860;2023-06-10T05:26:55;7.88;;;6.97;;
21270;SDS011;10795;50.796;3.860;2023-06-10T05:29:21;12.07;;;10.77;;
21270;SDS011;10795;50.796;3.860;2023-06-10T05:31:47;11.95;;;9.73;;
21270;SDS011;10795;50.796;3.860;2023-06-10T05:34:13;7.93;;;7.15;;
21270;SDS011;10795;50.796;3.860;2023-06-10T05:36:39;11.70;;;10.50;;
21270;SDS011;10795;50.796;3.860;2023-06-10T05:39:05;7.25;;;6.63;;
21270;SDS011;10795;50.796;3.860;2023-06-10T05:41:30;10.70;;;9.68;;
21270;SDS011;10795;50.796;3.860;2023-06-10T05:43:56;7.35;;;6.47;;
21270;SDS011;10795;50.796;3.860;2023-06-10T05:46:22;8.13;;;7.32;;
21270;SDS011;10795;50.796;3.860;2023-06-10T05:48:48;7.90;;;6.68;;
21270;SDS011;10795;50.796;3.860;2023-06-10T05:51:13;11.43;;;10.25;;
21270;SDS011;10795;50.796;3.860;2023-06-10T05:53:39;9.57;;;6.35;;
21270;SDS011;10795;50.796;3.860;2023-06-10T05:56:05;7.78;;;7.07;;
21270;SDS011;10795;50.796;3.860;2023-06-10T05:58:31;8.32;;;6.57;;
21270;SDS011;10795;50.796;3.860;2023-06-10T06:00:57;7.45;;;6.75;;
21270;SDS011;10795;50.796;3.860;2023-06-10T06:03:23;7.13;;;6.20;;
21270;SDS011;10795;50.796;3.860;2023-06-10T06:05:48;10.23;;;8.55;;
21270;SDS011;10795;50.796;3.860;2023-06-10T06:08:14;6.55;;;5.95;;
21270;SDS011;10795;50.796;3.860;2023-06-10T06:10:44;8.10;;;7.30;;
21270;SDS011;10795;50.796;3.860;2023-06-10T06:13:10;8.15;;;6.68;;
21270;SDS011;10795;50.796;3.860;2023-06-10T06:15:36;9.82;;;8.85;;
21270;SDS011;10795;50.796;3.860;2023-06-10T06:18:02;9.93;;;8.93;;
21270;SDS011;10795;50.796;3.860;2023-06-10T06:20:28;7.38;;;6.68;;
21270;SDS011;10795;50.796;3.860;2023-06-10T06:22:54;7.28;;;6.63;;
21270;SDS011;10795;50.796;3.860;2023-06-10T06:25:19;6.65;;;6.05;;
21270;SDS011;10795;50.796;3.860;2023-06-10T06:27:45;22.42;;;7.72;;
21270;SDS011;10795;50.796;3.860;2023-06-10T06:30:11;24.88;;;9.30;;
21270;SDS011;10795;50.796;3.860;2023-06-10T06:32:37;12.45;;;8.55;;
21270;SDS011;10795;50.796;3.860;2023-06-10T06:35:03;12.20;;;7.50;;
21270;SDS011;10795;50.796;3.860;2023-06-10T06:37:31;10.40;;;6.65;;
21270;SDS011;10795;50.796;3.860;2023-06-10T06:40:12;11.05;;;8.00;;
21270;SDS011;10795;50.796;3.860;2023-06-10T06:42:38;8.80;;;7.90;;
21270;SDS011;10795;50.796;3.860;2023-06-10T06:45:32;7.53;;;6.80;;
21270;SDS011;10795;50.796;3.860;2023-06-10T06:47:59;8.60;;;5.95;;
21270;SDS011;10795;50.796;3.860;2023-06-10T06:50:25;8.70;;;7.00;;
21270;SDS011;10795;50.796;3.860;2023-06-10T06:52:51;6.75;;;6.15;;
21270;SDS011;10795;50.796;3.860;2023-06-10T06:55:17;6.65;;;5.95;;
21270;SDS011;10795;50.796;3.860;2023-06-10T06:57:43;7.72;;;6.30;;
21270;SDS011;10795;50.796;3.860;2023-06-10T07:00:09;7.80;;;7.05;;
21270;SDS011;10795;50.796;3.860;2023-06-10T07:02:35;7.43;;;6.72;;
21270;SDS011;10795;50.796;3.860;2023-06-10T07:05:01;5.15;;;4.75;;
21270;SDS011;10795;50.796;3.860;2023-06-10T07:07:28;6.72;;;6.13;;
21270;SDS011;10795;50.796;3.860;2023-06-10T07:09:54;6.88;;;6.22;;
21270;SDS011;10795;50.796;3.860;2023-06-10T07:12:20;6.35;;;5.60;;
21270;SDS011;10795;50.796;3.860;2023-06-10T07:14:49;5.97;;;5.47;;
21270;SDS011;10795;50.796;3.860;2023-06-10T07:17:16;6.07;;;5.55;;
21270;SDS011;10795;50.796;3.860;2023-06-10T07:19:43;6.78;;;6.28;;
21270;SDS011;10795;50.796;3.860;2023-06-10T07:22:09;6.85;;;5.40;;
21270;SDS011;10795;50.796;3.860;2023-06-10T07:24:35;5.25;;;4.78;;
21270;SDS011;10795;50.796;3.860;2023-06-10T07:27:01;7.80;;;5.55;;
21270;SDS011;10795;50.796;3.860;2023-06-10T07:29:27;6.35;;;5.75;;
21270;SDS011;10795;50.796;3.860;2023-06-10T07:31:52;5.65;;;5.15;;
21270;SDS011;10795;50.796;3.860;2023-06-10T07:34:18;6.07;;;5.47;;
21270;SDS011;10795;50.796;3.860;2023-06-10T07:36:44;5.70;;;5.20;;
21270;SDS011;10795;50.796;3.860;2023-06-10T07:39:10;4.95;;;4.57;;
21270;SDS011;10795;50.796;3.860;2023-06-10T07:41:36;6.43;;;5.82;;
21270;SDS011;10795;50.796;3.860;2023-06-10T07:44:02;5.63;;;5.00;;
21270;SDS011;10795;50.796;3.860;2023-06-10T07:46:28;5.30;;;4.80;;
21270;SDS011;10795;50.796;3.860;2023-06-10T07:48:54;4.95;;;4.53;;
21270;SDS011;10795;50.796;3.860;2023-06-10T07:51:20;5.13;;;4.63;;
21270;SDS011;10795;50.796;3.860;2023-06-10T07:53:46;4.53;;;4.13;;
21270;SDS011;10795;50.796;3.860;2023-06-10T07:56:12;5.13;;;4.70;;
21270;SDS011;10795;50.796;3.860;2023-06-10T07:58:38;8.93;;;5.93;;
21270;SDS011;10795;50.796;3.860;2023-06-10T08:01:04;5.50;;;5.00;;
21270;SDS011;10795;50.796;3.860;2023-06-10T08:03:30;4.95;;;4.55;;
21270;SDS011;10795;50.796;3.860;2023-06-10T08:05:56;4.80;;;4.20;;
21270;SDS011;10795;50.796;3.860;2023-06-10T08:08:21;5.47;;;4.70;;
21270;SDS011;10795;50.796;3.860;2023-06-10T08:10:47;6.93;;;5.53;;
21270;SDS011;10795;50.796;3.860;2023-06-10T08:13:14;5.13;;;4.72;;
21270;SDS011;10795;50.796;3.860;2023-06-10T08:15:40;6.03;;;5.18;;
21270;SDS011;10795;50.796;3.860;2023-06-10T08:18:06;5.55;;;4.63;;
21270;SDS011;10795;50.796;3.860;2023-06-10T08:20:31;5.20;;;4.78;;
21270;SDS011;10795;50.796;3.860;2023-06-10T08:22:57;8.75;;;4.95;;
21270;SDS011;10795;50.796;3.860;2023-06-10T08:25:23;4.15;;;3.85;;
21270;SDS011;10795;50.796;3.860;2023-06-10T08:27:49;4.70;;;4.30;;
21270;SDS011;10795;50.796;3.860;2023-06-10T08:30:16;4.47;;;4.07;;
21270;SDS011;10795;50.796;3.860;2023-06-10T08:32:41;4.57;;;4.18;;
21270;SDS011;10795;50.796;3.860;2023-06-10T08:35:07;5.10;;;4.45;;
21270;SDS011;10795;50.796;3.860;2023-06-10T08:37:33;4.18;;;3.78;;
21270;SDS011;10795;50.796;3.860;2023-06-10T08:39:59;4.35;;;3.97;;
21270;SDS011;10795;50.796;3.860;2023-06-10T08:42:32;5.18;;;4.68;;
21270;SDS011;10795;50.796;3.860;2023-06-10T08:45:02;5.55;;;4.38;;
21270;SDS011;10795;50.796;3.860;2023-06-10T08:47:29;4.15;;;3.83;;
21270;SDS011;10795;50.796;3.860;2023-06-10T08:50:01;3.80;;;3.47;;
21270;SDS011;10795;50.796;3.860;2023-06-10T08:52:35;5.88;;;4.60;;
21270;SDS011;10795;50.796;3.860;2023-06-10T08:55:11;4.25;;;3.78;;
21270;SDS011;10795;50.796;3.860;2023-06-10T08:57:41;4.47;;;4.00;;
21270;SDS011;10795;50.796;3.860;2023-06-10T09:00:08;4.05;;;3.75;;
21270;SDS011;10795;50.796;3.860;2023-06-10T09:02:34;4.90;;;4.47;;
21270;SDS011;10795;50.796;3.860;2023-06-10T09:05:02;4.60;;;4.30;;
21270;SDS011;10795;50.796;3.860;2023-06-10T09:07:29;4.70;;;4.30;;
21270;SDS011;10795;50.796;3.860;2023-06-10T09:10:01;4.60;;;3.80;;
21270;SDS011;10795;50.796;3.860;2023-06-10T09:12:32;4.28;;;3.97;;
21270;SDS011;10795;50.796;3.860;2023-06-10T09:15:00;4.82;;;4.43;;
21270;SDS011;10795;50.796;3.860;2023-06-10T09:17:26;4.90;;;4.35;;
21270;SDS011;10795;50.796;3.860;2023-06-10T09:19:52;4.13;;;3.83;;
21270;SDS011;10795;50.796;3.860;2023-06-10T09:22:23;4.32;;;3.92;;
21270;SDS011;10795;50.796;3.860;2023-06-10T09:24:52;4.25;;;3.85;;
21270;SDS011;10795;50.796;3.860;2023-06-10T09:27:29;5.38;;;4.53;;
21270;SDS011;10795;50.796;3.860;2023-06-10T09:29:57;5.88;;;4.35;;
21270;SDS011;10795;50.796;3.860;2023-06-10T09:32:23;4.32;;;3.92;;
21270;SDS011;10795;50.796;3.860;2023-06-10T09:34:49;5.68;;;4.68;;
21270;SDS011;10795;50.796;3.860;2023-06-10T09:40:03;4.40;;;4.10;;
21270;SDS011;10795;50.796;3.860;2023-06-10T09:42:33;4.15;;;3.85;;
21270;SDS011;10795;50.796;3.860;2023-06-10T09:45:04;4.75;;;4.35;;
21270;SDS011;10795;50.796;3.860;2023-06-10T09:47:31;4.68;;;4.32;;
21270;SDS011;10795;50.796;3.860;2023-06-10T09:49:56;4.70;;;3.58;;
21270;SDS011;10795;50.796;3.860;2023-06-10T09:52:22;5.45;;;4.25;;
21270;SDS011;10795;50.796;3.860;2023-06-10T09:54:50;4.38;;;4.07;;
21270;SDS011;10795;50.796;3.860;2023-06-10T09:57:17;5.00;;;4.50;;
21270;SDS011;10795;50.796;3.860;2023-06-10T09:59:44;6.47;;;4.78;;
21270;SDS011;10795;50.796;3.860;2023-06-10T10:02:16;7.22;;;4.43;;
21270;SDS011;10795;50.796;3.860;2023-06-10T10:04:43;5.53;;;5.07;;
21270;SDS011;10795;50.796;3.860;2023-06-10T10:07:10;5.75;;;4.70;;
21270;SDS011;10795;50.796;3.860;2023-06-10T10:09:40;5.88;;;4.90;;
21270;SDS011;10795;50.796;3.860;2023-06-10T10:12:14;4.65;;;4.25;;
21270;SDS011;10795;50.796;3.860;2023-06-10T10:14:43;6.43;;;4.60;;
21270;SDS011;10795;50.796;3.860;2023-06-10T10:17:11;5.20;;;4.80;;
21270;SDS011;10795;50.796;3.860;2023-06-10T10:19:43;4.80;;;4.40;;
21270;SDS011;10795;50.796;3.860;2023-06-10T10:25:08;6.18;;;5.40;;
21270;SDS011;10795;50.796;3.860;2023-06-10T10:27:59;5.68;;;5.15;;
21270;SDS011;10795;50.796;3.860;2023-06-10T10:30:34;4.85;;;4.45;;
21270;SDS011;10795;50.796;3.860;2023-06-10T10:33:22;6.45;;;4.70;;
21270;SDS011;10795;50.796;3.860;2023-06-10T10:35:58;5.75;;;4.93;;
21270;SDS011;10795;50.796;3.860;2023-06-10T10:38:24;4.60;;;4.20;;
21270;SDS011;10795;50.796;3.860;2023-06-10T10:40:50;4.63;;;4.22;;
21270;SDS011;10795;50.796;3.860;2023-06-10T10:43:17;6.10;;;4.95;;
21270;SDS011;10795;50.796;3.860;2023-06-10T10:45:45;4.95;;;4.40;;
21270;SDS011;10795;50.796;3.860;2023-06-10T10:48:36;5.00;;;4.57;;
21270;SDS011;10795;50.796;3.860;2023-06-10T10:51:03;4.40;;;3.95;;
21270;SDS011;10795;50.796;3.860;2023-06-10T10:53:29;4.57;;;4.28;;
21270;SDS011;10795;50.796;3.860;2023-06-10T10:59:06;5.10;;;4.60;;
21270;SDS011;10795;50.796;3.860;2023-06-10T11:01:45;4.70;;;4.30;;
21270;SDS011;10795;50.796;3.860;2023-06-10T11:08:14;4.47;;;4.07;;
21270;SDS011;10795;50.796;3.860;2023-06-10T11:14:43;4.35;;;3.75;;
21270;SDS011;10795;50.796;3.860;2023-06-10T11:18:18;5.80;;;4.35;;
21270;SDS011;10795;50.796;3.860;2023-06-10T15:06:50;5.28;;;4.78;;
21270;SDS011;10795;50.796;3.860;2023-06-10T15:09:16;5.80;;;5.20;;
21270;SDS011;10795;50.796;3.860;2023-06-10T15:11:42;5.50;;;5.03;;
21270;SDS011;10795;50.796;3.860;2023-06-10T15:14:08;5.65;;;5.13;;
21270;SDS011;10795;50.796;3.860;2023-06-10T15:16:33;6.38;;;5.50;;
21270;SDS011;10795;50.796;3.860;2023-06-10T15:19:02;5.13;;;4.72;;
21270;SDS011;10795;50.796;3.860;2023-06-10T15:21:28;5.30;;;4.90;;
21270;SDS011;10795;50.796;3.860;2023-06-10T15:23:54;5.50;;;5.05;;
21270;SDS011;10795;50.796;3.860;2023-06-10T15:26:20;7.05;;;5.20;;
21270;SDS011;10795;50.796;3.860;2023-06-10T15:28:46;5.80;;;5.20;;
21270;SDS011;10795;50.796;3.860;2023-06-10T15:31:11;5.40;;;4.90;;
21270;SDS011;10795;50.796;3.860;2023-06-10T15:33:37;6.20;;;5.70;;
21270;SDS011;10795;50.796;3.860;2023-06-10T15:36:03;5.82;;;5.22;;
21270;SDS011;10795;50.796;3.860;2023-06-10T15:38:31;7.07;;;5.40;;
21270;SDS011;10795;50.796;3.860;2023-06-10T15:40:56;6.00;;;5.50;;
21270;SDS011;10795;50.796;3.860;2023-06-10T15:43:22;5.63;;;4.93;;
21270;SDS011;10795;50.796;3.860;2023-06-10T15:45:48;5.78;;;5.20;;
21270;SDS011;10795;50.796;3.860;2023-06-10T15:48:14;5.82;;;5.32;;
21270;SDS011;10795;50.796;3.860;2023-06-10T15:50:40;6.65;;;5.60;;
21270;SDS011;10795;50.796;3.860;2023-06-10T15:53:05;6.50;;;5.90;;
21270;SDS011;10795;50.796;3.860;2023-06-10T15:55:47;7.03;;;6.30;;
21270;SDS011;10795;50.796;3.860;2023-06-10T16:00:42;6.05;;;5.55;;
21270;SDS011;10795;50.796;3.860;2023-06-10T16:03:10;9.10;;;6.35;;
21270;SDS011;10795;50.796;3.860;2023-06-10T16:05:38;5.90;;;5.30;;
21270;SDS011;10795;50.796;3.860;2023-06-10T16:08:04;5.43;;;4.80;;
21270;SDS011;10795;50.796;3.860;2023-06-10T16:10:30;7.55;;;5.32;;
21270;SDS011;10795;50.796;3.860;2023-06-10T16:12:58;5.73;;;5.17;;
21270;SDS011;10795;50.796;3.860;2023-06-10T16:15:24;6.80;;;5.60;;
21270;SDS011;10795;50.796;3.860;2023-06-10T16:17:50;5.85;;;5.35;;
21270;SDS011;10795;50.796;3.860;2023-06-10T16:20:15;6.50;;;5.93;;
21270;SDS011;10795;50.796;3.860;2023-06-10T16:22:41;6.50;;;6.00;;
21270;SDS011;10795;50.796;3.860;2023-06-10T16:25:07;6.28;;;4.95;;
21270;SDS011;10795;50.796;3.860;2023-06-10T16:35:08;6.35;;;5.75;;
21270;SDS011;10795;50.796;3.860;2023-06-10T16:37:34;6.38;;;5.78;;
21270;SDS011;10795;50.796;3.860;2023-06-10T16:40:00;6.93;;;5.30;;
21270;SDS011;10795;50.796;3.860;2023-06-10T16:42:25;5.43;;;5.03;;
21270;SDS011;10795;50.796;3.860;2023-06-10T16:44:51;5.80;;;5.20;;
21270;SDS011;10795;50.796;3.860;2023-06-10T16:47:17;5.63;;;5.13;;
21270;SDS011;10795;50.796;3.860;2023-06-10T16:49:43;6.70;;;5.82;;
21270;SDS011;10795;50.796;3.860;2023-06-10T16:52:09;7.85;;;6.30;;
21270;SDS011;10795;50.796;3.860;2023-06-10T16:54:34;5.95;;;5.32;;
21270;SDS011;10795;50.796;3.860;2023-06-10T16:57:00;6.28;;;4.72;;
21270;SDS011;10795;50.796;3.860;2023-06-10T16:59:26;6.80;;;5.90;;
21270;SDS011;10795;50.796;3.860;2023-06-10T17:01:52;6.47;;;5.88;;
21270;SDS011;10795;50.796;3.860;2023-06-10T17:04:17;6.22;;;5.63;;
21270;SDS011;10795;50.796;3.860;2023-06-10T17:06:43;8.18;;;5.40;;
21270;SDS011;10795;50.796;3.860;2023-06-10T17:09:09;5.63;;;5.07;;
21270;SDS011;10795;50.796;3.860;2023-06-10T17:11:35;5.60;;;5.13;;
21270;SDS011;10795;50.796;3.860;2023-06-10T17:14:00;8.10;;;5.57;;
21270;SDS011;10795;50.796;3.860;2023-06-10T17:16:26;5.68;;;5.18;;
21270;SDS011;10795;50.796;3.860;2023-06-10T17:18:52;9.73;;;6.80;;
21270;SDS011;10795;50.796;3.860;2023-06-10T17:21:17;7.25;;;5.90;;
21270;SDS011;10795;50.796;3.860;2023-06-10T17:23:43;6.90;;;6.03;;
21270;SDS011;10795;50.796;3.860;2023-06-10T17:26:09;5.70;;;5.13;;
21270;SDS011;10795;50.796;3.860;2023-06-10T17:28:35;5.35;;;4.85;;
21270;SDS011;10795;50.796;3.860;2023-06-10T17:31:01;6.00;;;5.20;;
21270;SDS011;10795;50.796;3.860;2023-06-10T17:33:26;6.07;;;5.53;;
21270;SDS011;10795;50.796;3.860;2023-06-10T17:35:52;5.93;;;5.20;;
21270;SDS011;10795;50.796;3.860;2023-06-10T17:38:18;7.32;;;5.30;;
21270;SDS011;10795;50.796;3.860;2023-06-10T17:40:46;5.90;;;5.30;;
21270;SDS011;10795;50.796;3.860;2023-06-10T17:43:12;5.60;;;5.10;;
21270;SDS011;10795;50.796;3.860;2023-06-10T17:45:37;5.60;;;5.10;;
21270;SDS011;10795;50.796;3.860;2023-06-10T17:48:03;6.10;;;4.72;;
21270;SDS011;10795;50.796;3.860;2023-06-10T17:50:29;5.65;;;5.20;;
21270;SDS011;10795;50.796;3.860;2023-06-10T17:52:55;6.22;;;4.30;;
21270;SDS011;10795;50.796;3.860;2023-06-10T17:55:21;6.03;;;5.30;;
21270;SDS011;10795;50.796;3.860;2023-06-10T17:57:47;5.38;;;4.88;;
21270;SDS011;10795;50.796;3.860;2023-06-10T18:00:13;5.43;;;5.03;;
21270;SDS011;10795;50.796;3.860;2023-06-10T18:02:39;5.15;;;4.75;;
21270;SDS011;10795;50.796;3.860;2023-06-10T18:05:05;5.75;;;5.00;;
21270;SDS011;10795;50.796;3.860;2023-06-10T18:07:31;5.40;;;4.90;;
21270;SDS011;10795;50.796;3.860;2023-06-10T18:09:57;5.32;;;4.90;;
21270;SDS011;10795;50.796;3.860;2023-06-10T18:12:23;5.32;;;4.90;;
21270;SDS011;10795;50.796;3.860;2023-06-10T18:14:48;5.40;;;5.00;;
21270;SDS011;10795;50.796;3.860;2023-06-10T18:17:14;5.28;;;4.88;;
21270;SDS011;10795;50.796;3.860;2023-06-10T18:19:40;4.88;;;4.45;;
21270;SDS011;10795;50.796;3.860;2023-06-10T18:22:06;4.88;;;4.35;;
21270;SDS011;10795;50.796;3.860;2023-06-10T18:24:32;4.43;;;4.13;;
21270;SDS011;10795;50.796;3.860;2023-06-10T18:26:57;4.68;;;4.38;;
21270;SDS011;10795;50.796;3.860;2023-06-10T18:29:23;6.78;;;5.53;;
21270;SDS011;10795;50.796;3.860;2023-06-10T18:31:49;4.28;;;3.88;;
21270;SDS011;10795;50.796;3.860;2023-06-10T18:34:15;6.03;;;5.47;;
21270;SDS011;10795;50.796;3.860;2023-06-10T18:36:41;6.72;;;4.85;;
21270;SDS011;10795;50.796;3.860;2023-06-10T18:39:06;4.18;;;3.85;;
21270;SDS011;10795;50.796;3.860;2023-06-10T18:41:32;4.93;;;4.53;;
21270;SDS011;10795;50.796;3.860;2023-06-10T18:43:58;4.70;;;4.30;;
21270;SDS011;10795;50.796;3.860;2023-06-10T18:46:26;4.22;;;3.90;;
21270;SDS011;10795;50.796;3.860;2023-06-10T18:48:52;4.57;;;4.18;;
21270;SDS011;10795;50.796;3.860;2023-06-10T18:51:18;5.13;;;4.55;;
21270;SDS011;10795;50.796;3.860;2023-06-10T18:53:44;6.03;;;5.20;;
21270;SDS011;10795;50.796;3.860;2023-06-10T18:56:11;4.72;;;4.18;;
21270;SDS011;10795;50.796;3.860;2023-06-10T18:58:38;5.07;;;4.53;;
21270;SDS011;10795;50.796;3.860;2023-06-10T19:01:04;4.00;;;3.70;;